Time;durP1;ratioP1;P1;durP2;ratioP2;P2;SDS_P1;SDS_P2;PMS_P1;PMS_P2;Temp;Humidity;BMP_temperature;BMP_pressure;BME280_temperature;BME280_humidity;BME280_pressure;Samples;Min_cycle;Max_cycle;Signal;HPM_P1;HPM_P2
2021/03/14 00:00:52;;;;;;;5.90;1.60;;;7.90;92.80;;;;;;5093365;28;20684;-50
2021/03/14 00:03:21;;;;;;;3.90;1.67;;;7.90;92.80;;;;;;5093256;28;20682;-51
2021/03/14 00:05:49;;;;;;;1.70;1.13;;;8.00;92.80;;;;;;5091344;28;20672;-50
2021/03/14 00:08:16;;;;;;;5.63;1.50;;;8.00;92.70;;;;;;5092692;28;20695;-51
2021/03/14 00:10:44;;;;;;;1.30;1.00;;;8.10;92.50;;;;;;5093153;28;21203;-50
2021/03/14 00:13:11;;;;;;;3.43;1.13;;;8.10;92.40;;;;;;5092543;28;20658;-51
2021/03/14 00:15:38;;;;;;;0.80;0.80;;;8.10;92.10;;;;;;5092926;28;20627;-51
2021/03/14 00:18:05;;;;;;;2.27;1.37;;;8.20;92.10;;;;;;5092760;28;21026;-50
2021/03/14 00:20:32;;;;;;;2.40;1.30;;;8.20;91.80;;;;;;5092743;28;20704;-50
2021/03/14 00:22:59;;;;;;;1.93;1.43;;;8.20;91.60;;;;;;5092837;28;20628;-50
2021/03/14 00:25:26;;;;;;;3.37;2.10;;;8.20;91.60;;;;;;5092321;28;21207;-52
2021/03/14 00:27:53;;;;;;;2.60;1.70;;;8.20;91.80;;;;;;5092386;28;20692;-50
2021/03/14 00:30:21;;;;;;;2.57;2.00;;;8.30;91.80;;;;;;5092355;28;20727;-50
2021/03/14 00:32:48;;;;;;;1.93;0.90;;;8.30;91.90;;;;;;5091514;28;20662;-51
2021/03/14 00:35:16;;;;;;;2.17;0.90;;;8.20;91.50;;;;;;5092705;28;20681;-50
2021/03/14 00:37:43;;;;;;;2.03;1.20;;;8.30;92.00;;;;;;5091875;28;21070;-50
2021/03/14 00:40:10;;;;;;;1.80;1.63;;;8.20;91.60;;;;;;5092079;28;20655;-51
2021/03/14 00:42:38;;;;;;;4.27;1.63;;;8.10;91.70;;;;;;5092022;28;20626;-50
2021/03/14 00:45:06;;;;;;;2.60;1.20;;;8.10;91.50;;;;;;5091049;28;20641;-50
2021/03/14 00:47:33;;;;;;;2.60;1.20;;;8.00;91.50;;;;;;5091907;28;20627;-51
2021/03/14 00:49:59;;;;;;;3.27;2.00;;;8.00;91.50;;;;;;5092031;28;20997;-50
2021/03/14 00:52:26;;;;;;;1.83;1.40;;;7.90;91.80;;;;;;5092553;28;20727;-50
2021/03/14 00:54:54;;;;;;;2.30;1.27;;;7.90;92.10;;;;;;5090923;28;20635;-50
2021/03/14 00:57:21;;;;;;;4.60;2.43;;;7.80;92.00;;;;;;5092003;28;20633;-51
2021/03/14 00:59:47;;;;;;;3.13;1.00;;;7.90;92.00;;;;;;5091757;28;20662;-50
2021/03/14 01:02:15;;;;;;;4.77;1.30;;;7.70;91.70;;;;;;5091974;28;21045;-50
2021/03/14 01:04:41;;;;;;;2.47;1.73;;;7.60;92.00;;;;;;5092056;28;20672;-51
2021/03/14 01:07:08;;;;;;;2.70;0.90;;;7.70;92.20;;;;;;5091531;28;20710;-50
2021/03/14 01:09:35;;;;;;;6.70;1.97;;;7.70;92.20;;;;;;5091439;28;20651;-51
2021/03/14 01:12:03;;;;;;;1.63;1.27;;;7.70;91.90;;;;;;5090242;28;20657;-52
2021/03/14 01:14:29;;;;;;;2.37;1.03;;;7.80;91.90;;;;;;5091300;28;20669;-52
2021/03/14 01:16:56;;;;;;;5.53;2.00;;;7.80;91.50;;;;;;5091765;28;20636;-51
2021/03/14 01:19:23;;;;;;;1.57;1.47;;;7.90;91.60;;;;;;5091412;28;20626;-51
2021/03/14 01:21:50;;;;;;;5.63;1.90;;;7.90;91.40;;;;;;5091744;28;20622;-51
2021/03/14 01:24:16;;;;;;;3.10;1.00;;;7.80;91.60;;;;;;5091991;28;21149;-51
2021/03/14 01:26:43;;;;;;;2.13;1.30;;;7.80;91.70;;;;;;5091909;28;20634;-51
2021/03/14 01:29:11;;;;;;;1.70;0.77;;;7.70;91.40;;;;;;5091151;28;20682;-50
2021/03/14 01:31:38;;;;;;;0.90;0.70;;;7.50;91.70;;;;;;5092057;28;20669;-52
2021/03/14 01:34:04;;;;;;;3.83;1.30;;;7.40;92.00;;;;;;5091669;28;20675;-50
2021/03/14 01:36:31;;;;;;;1.47;0.97;;;7.30;92.30;;;;;;5091892;28;20675;-52
2021/03/14 01:38:58;;;;;;;7.70;3.17;;;7.40;92.80;;;;;;5091063;28;20629;-52
2021/03/14 01:41:25;;;;;;;2.67;1.17;;;7.40;92.40;;;;;;5091215;28;20650;-52
2021/03/14 01:43:51;;;;;;;2.20;0.80;;;7.50;92.60;;;;;;5093519;28;20680;-52
2021/03/14 01:46:19;;;;;;;2.97;1.13;;;7.50;92.60;;;;;;5098105;28;21091;-51
2021/03/14 01:48:46;;;;;;;2.27;1.47;;;7.40;92.70;;;;;;5098018;28;20657;-50
2021/03/14 01:51:12;;;;;;;5.33;0.90;;;7.50;92.90;;;;;;5097770;28;21075;-49
2021/03/14 01:53:39;;;;;;;1.97;0.90;;;7.50;92.60;;;;;;5098465;28;21047;-50
2021/03/14 01:56:06;;;;;;;1.40;1.07;;;7.50;92.50;;;;;;5098304;28;20687;-51
2021/03/14 01:58:34;;;;;;;1.37;1.23;;;7.60;92.40;;;;;;5097768;28;20957;-50
2021/03/14 02:01:01;;;;;;;1.73;0.97;;;7.60;92.40;;;;;;5098196;28;20722;-50
2021/03/14 02:03:28;;;;;;;1.80;1.00;;;7.60;92.50;;;;;;5098391;28;20687;-52
2021/03/14 02:05:55;;;;;;;1.63;1.47;;;7.60;92.30;;;;;;5098427;28;20658;-52
2021/03/14 02:08:22;;;;;;;1.37;0.73;;;7.60;92.30;;;;;;5098264;28;20688;-52
2021/03/14 02:10:50;;;;;;;3.30;1.20;;;7.60;92.30;;;;;;5097664;28;20647;-51
2021/03/14 02:13:19;;;;;;;4.33;2.07;;;7.50;92.20;;;;;;5077782;28;20714;-52
2021/03/14 02:15:46;;;;;;;1.60;1.00;;;7.60;92.40;;;;;;5087659;28;21019;-52
2021/03/14 02:18:14;;;;;;;3.57;1.40;;;7.80;92.40;;;;;;5097533;28;20634;-51
2021/03/14 02:20:41;;;;;;;4.33;1.50;;;7.80;92.20;;;;;;5098010;28;21277;-52
2021/03/14 02:23:14;;;;;;;2.40;1.30;;;7.80;92.20;;;;;;5097911;28;20626;-52
2021/03/14 02:25:45;;;;;;;2.07;1.13;;;7.80;92.40;;;;;;5097667;28;20666;-51
2021/03/14 02:28:12;;;;;;;3.07;1.33;;;7.80;92.30;;;;;;5097686;28;20634;-51
2021/03/14 02:30:40;;;;;;;2.07;1.60;;;7.80;92.40;;;;;;5097734;28;20674;-50
2021/03/14 02:33:07;;;;;;;3.43;1.80;;;7.80;92.50;;;;;;5097894;28;21025;-51
2021/03/14 02:35:34;;;;;;;3.33;1.40;;;7.80;92.40;;;;;;5097469;28;20631;-51
2021/03/14 02:38:01;;;;;;;1.73;1.37;;;7.80;92.40;;;;;;5097233;28;20635;-51
2021/03/14 02:40:28;;;;;;;1.67;0.97;;;7.90;92.40;;;;;;5097321;28;21268;-51
2021/03/14 02:42:55;;;;;;;1.97;1.40;;;7.90;92.40;;;;;;5097550;28;20937;-50
2021/03/14 02:45:23;;;;;;;3.13;1.30;;;7.80;92.30;;;;;;5097480;28;20659;-51
2021/03/14 02:47:50;;;;;;;2.27;1.27;;;7.80;92.40;;;;;;5096953;28;20632;-50
2021/03/14 02:50:17;;;;;;;4.67;2.00;;;7.80;92.60;;;;;;5097069;28;20710;-50
2021/03/14 02:52:44;;;;;;;1.97;1.30;;;7.80;92.60;;;;;;5097279;28;20711;-51
2021/03/14 02:55:11;;;;;;;3.00;1.70;;;7.80;92.40;;;;;;5095118;28;20618;-51
2021/03/14 02:57:38;;;;;;;1.63;1.53;;;7.80;92.20;;;;;;5094028;28;20625;-51
2021/03/14 03:00:07;;;;;;;3.70;1.67;;;7.70;92.10;;;;;;5093631;28;21049;-50
2021/03/14 03:02:35;;;;;;;2.77;1.30;;;7.80;92.10;;;;;;5093729;28;20687;-51
2021/03/14 03:05:02;;;;;;;8.40;2.00;;;7.80;92.00;;;;;;5093325;28;20683;-51
2021/03/14 03:07:28;;;;;;;3.97;2.17;;;7.90;92.00;;;;;;5085920;28;20661;-52
2021/03/14 03:09:55;;;;;;;4.23;2.00;;;7.80;91.70;;;;;;5093832;28;20702;-52
2021/03/14 03:12:23;;;;;;;4.20;1.93;;;7.90;91.90;;;;;;5093567;28;20699;-52
2021/03/14 03:14:50;;;;;;;4.50;1.70;;;7.80;91.90;;;;;;5093389;28;20627;-52
2021/03/14 03:17:17;;;;;;;6.30;2.03;;;7.90;92.10;;;;;;5093370;28;20625;-52
2021/03/14 03:19:45;;;;;;;4.63;1.87;;;7.90;92.30;;;;;;5093237;28;20653;-52
2021/03/14 03:22:12;;;;;;;2.00;1.73;;;7.80;92.30;;;;;;5093412;28;20619;-52
2021/03/14 03:24:38;;;;;;;3.80;1.57;;;7.90;92.40;;;;;;5085114;28;20953;-52
2021/03/14 03:27:06;;;;;;;4.00;2.17;;;7.80;92.20;;;;;;5093410;28;20684;-51
2021/03/14 03:29:35;;;;;;;4.30;1.87;;;7.90;92.30;;;;;;5092585;28;20687;-51
2021/03/14 03:32:02;;;;;;;3.33;1.53;;;7.80;92.20;;;;;;5093152;28;20630;-51
2021/03/14 03:34:29;;;;;;;2.73;2.30;;;7.90;92.30;;;;;;5092520;28;20635;-50
2021/03/14 03:36:57;;;;;;;3.33;1.87;;;7.90;92.20;;;;;;5093502;28;20632;-50
2021/03/14 03:39:24;;;;;;;7.13;2.23;;;7.80;92.20;;;;;;5092754;28;20626;-52
2021/03/14 03:41:52;;;;;;;4.03;1.80;;;7.80;92.20;;;;;;5092004;28;20953;-51
2021/03/14 03:44:21;;;;;;;5.40;1.83;;;7.80;92.30;;;;;;5093737;28;20684;-51
2021/03/14 03:46:48;;;;;;;2.70;2.10;;;7.80;92.20;;;;;;5093163;28;20623;-51
2021/03/14 03:49:15;;;;;;;3.43;1.80;;;7.90;92.10;;;;;;5092596;28;20688;-51
2021/03/14 03:51:42;;;;;;;2.77;1.50;;;7.90;91.90;;;;;;5093032;28;21025;-51
2021/03/14 03:54:10;;;;;;;2.70;1.70;;;7.90;91.90;;;;;;5092497;28;20658;-50
2021/03/14 03:56:37;;;;;;;3.43;1.80;;;7.80;91.70;;;;;;5092806;28;20984;-51
2021/03/14 03:59:04;;;;;;;4.43;2.17;;;7.70;91.70;;;;;;5092761;28;20961;-51
2021/03/14 04:01:30;;;;;;;2.60;1.80;;;7.60;92.00;;;;;;5092431;28;20658;-51
2021/03/14 04:03:57;;;;;;;3.17;1.80;;;7.60;91.90;;;;;;5093035;28;20626;-51
2021/03/14 04:06:24;;;;;;;2.30;1.50;;;7.60;91.90;;;;;;5092047;28;20700;-50
2021/03/14 04:08:51;;;;;;;2.63;1.77;;;7.60;92.10;;;;;;5091424;28;20680;-51
2021/03/14 04:11:19;;;;;;;5.53;1.23;;;7.60;92.20;;;;;;5092020;28;20707;-52
2021/03/14 04:13:46;;;;;;;5.77;1.67;;;7.60;92.20;;;;;;5092521;28;20659;-52
2021/03/14 04:16:13;;;;;;;2.00;1.40;;;7.60;92.30;;;;;;5093144;28;21159;-51
2021/03/14 04:18:40;;;;;;;2.70;1.47;;;7.60;92.20;;;;;;5091647;28;20632;-52
2021/03/14 04:21:08;;;;;;;3.27;2.13;;;7.60;92.00;;;;;;5092405;28;20651;-51
2021/03/14 04:23:35;;;;;;;2.13;1.97;;;7.50;91.90;;;;;;5092110;28;20614;-51
2021/03/14 04:26:02;;;;;;;2.30;1.20;;;7.30;92.10;;;;;;5092186;28;20668;-51
2021/03/14 04:28:31;;;;;;;1.80;1.23;;;7.30;92.40;;;;;;5087263;28;20970;-52
2021/03/14 04:30:58;;;;;;;2.73;1.23;;;7.30;92.30;;;;;;5092045;28;20712;-51
2021/03/14 04:33:25;;;;;;;3.73;1.37;;;7.20;92.30;;;;;;5092199;28;20649;-52
2021/03/14 04:35:52;;;;;;;5.40;2.23;;;7.30;92.40;;;;;;5092178;28;20676;-51
2021/03/14 04:38:19;;;;;;;5.30;1.30;;;7.40;92.30;;;;;;5092025;28;21018;-52
2021/03/14 04:40:46;;;;;;;2.63;1.13;;;7.40;92.20;;;;;;5091828;28;20655;-50
2021/03/14 04:43:13;;;;;;;3.93;1.23;;;7.40;92.00;;;;;;5091902;28;21228;-51
2021/03/14 04:45:41;;;;;;;3.53;1.50;;;7.40;91.90;;;;;;5093524;28;21187;-51
2021/03/14 04:48:08;;;;;;;4.93;1.57;;;7.40;91.90;;;;;;5093112;28;20621;-50
2021/03/14 04:50:34;;;;;;;2.63;1.37;;;7.40;91.90;;;;;;5091992;28;20657;-50
2021/03/14 04:53:02;;;;;;;3.87;1.93;;;7.40;92.10;;;;;;5091636;28;20658;-51
2021/03/14 04:55:29;;;;;;;1.60;1.00;;;7.30;91.80;;;;;;5091819;28;21023;-52
2021/03/14 04:57:56;;;;;;;1.10;0.90;;;7.20;92.20;;;;;;5090837;28;21006;-51
2021/03/14 05:00:23;;;;;;;2.40;1.17;;;7.00;92.20;;;;;;5091278;28;21261;-52
2021/03/14 05:02:52;;;;;;;2.20;1.13;;;7.00;92.50;;;;;;5091472;28;20630;-51
2021/03/14 05:05:18;;;;;;;0.93;0.70;;;6.90;92.90;;;;;;5091168;28;20634;-52
2021/03/14 05:07:46;;;;;;;2.33;0.60;;;7.00;92.80;;;;;;5091355;28;20627;-51
2021/03/14 05:10:14;;;;;;;0.70;0.70;;;7.00;92.70;;;;;;5090822;28;20699;-51
2021/03/14 05:12:41;;;;;;;0.90;0.70;;;7.00;92.80;;;;;;5091316;28;20680;-51
2021/03/14 05:15:10;;;;;;;2.13;1.00;;;7.00;92.60;;;;;;5091131;28;21238;-52
2021/03/14 05:17:37;;;;;;;0.93;0.57;;;7.10;92.40;;;;;;5091322;28;20632;-51
2021/03/14 05:20:06;;;;;;;2.20;1.00;;;7.00;92.20;;;;;;5090623;28;21218;-51
2021/03/14 05:22:34;;;;;;;2.80;1.23;;;7.00;92.40;;;;;;5091707;28;21174;-52
2021/03/14 05:25:00;;;;;;;1.10;0.87;;;7.10;92.20;;;;;;5091373;28;20626;-51
2021/03/14 05:27:27;;;;;;;1.47;0.80;;;7.10;92.20;;;;;;5091109;28;21089;-52
2021/03/14 05:29:54;;;;;;;1.93;1.10;;;7.20;92.30;;;;;;5091199;28;20673;-50
2021/03/14 05:32:21;;;;;;;0.77;0.77;;;7.20;92.20;;;;;;5090356;28;20630;-51
2021/03/14 05:34:47;;;;;;;1.37;0.87;;;7.20;91.80;;;;;;5090521;28;21045;-51
2021/03/14 05:37:15;;;;;;;1.33;1.17;;;7.10;91.80;;;;;;5090856;28;21038;-51
2021/03/14 05:39:42;;;;;;;0.80;0.80;;;7.10;92.00;;;;;;5090939;28;21078;-52
2021/03/14 05:42:09;;;;;;;2.03;1.10;;;7.00;92.20;;;;;;5090714;28;21186;-52
2021/03/14 05:44:35;;;;;;;1.87;1.10;;;7.00;92.50;;;;;;5090617;28;20651;-52
2021/03/14 05:47:02;;;;;;;2.20;1.33;;;6.90;92.50;;;;;;5091169;28;20655;-51
2021/03/14 05:49:29;;;;;;;6.43;1.47;;;6.90;92.80;;;;;;5082921;28;20645;-52
2021/03/14 05:51:56;;;;;;;1.37;1.00;;;7.00;92.70;;;;;;5091357;28;20634;-50
2021/03/14 05:54:23;;;;;;;1.07;0.97;;;7.00;92.60;;;;;;5090670;28;20715;-51
2021/03/14 05:56:50;;;;;;;2.67;0.80;;;7.10;92.90;;;;;;5090652;28;20996;-51
2021/03/14 05:59:18;;;;;;;2.30;1.10;;;7.10;92.50;;;;;;5090388;28;20630;-50
2021/03/14 06:01:49;;;;;;;1.20;1.07;;;7.00;92.50;;;;;;5090822;28;20702;-51
2021/03/14 06:04:16;;;;;;;1.37;0.70;;;7.00;92.80;;;;;;5090739;28;20654;-52
2021/03/14 06:06:43;;;;;;;4.80;1.23;;;7.00;92.70;;;;;;5090672;28;20625;-52
2021/03/14 06:09:11;;;;;;;3.83;1.00;;;6.90;92.90;;;;;;5090774;28;20711;-50
2021/03/14 06:11:39;;;;;;;1.13;0.93;;;7.00;92.70;;;;;;5090896;28;20687;-50
2021/03/14 06:14:06;;;;;;;1.23;1.10;;;7.00;92.60;;;;;;5090685;28;20658;-50
2021/03/14 06:16:32;;;;;;;2.83;1.63;;;7.10;93.00;;;;;;5090818;28;20621;-50
2021/03/14 06:18:59;;;;;;;1.50;1.37;;;7.10;92.50;;;;;;5090780;28;20625;-50
2021/03/14 06:21:27;;;;;;;2.90;1.37;;;7.00;92.50;;;;;;5090595;28;21012;-50
2021/03/14 06:23:58;;;;;;;1.03;0.97;;;6.90;92.70;;;;;;5090731;28;20721;-51
2021/03/14 06:26:40;;;;;;;1.20;1.10;;;6.90;92.90;;;;;;5090699;28;20630;-52
2021/03/14 06:29:23;;;;;;;4.13;1.53;;;7.00;92.90;;;;;;5090885;28;20695;-51
2021/03/14 06:31:51;;;;;;;2.90;1.60;;;7.10;92.60;;;;;;5093265;28;20682;-52
2021/03/14 06:34:31;;;;;;;2.13;1.30;;;7.10;92.60;;;;;;5094176;28;20708;-53
2021/03/14 06:36:59;;;;;;;2.70;1.50;;;7.20;92.60;;;;;;5093732;28;21177;-51
2021/03/14 06:39:26;;;;;;;1.67;1.43;;;7.20;92.40;;;;;;5090112;28;20632;-53
2021/03/14 06:41:54;;;;;;;4.50;1.73;;;7.20;92.10;;;;;;5074829;28;20736;-53
2021/03/14 06:44:25;;;;;;;4.77;1.53;;;7.20;91.90;;;;;;5079301;28;20679;-53
2021/03/14 06:46:51;;;;;;;1.77;1.30;;;7.20;91.70;;;;;;5098541;28;21207;-53
2021/03/14 06:49:19;;;;;;;1.50;1.17;;;7.20;91.80;;;;;;5093591;28;20679;-53
2021/03/14 06:51:47;;;;;;;1.33;1.20;;;7.30;91.80;;;;;;5080619;28;20621;-51
2021/03/14 06:54:18;;;;;;;4.10;2.17;;;7.30;91.70;;;;;;5090868;28;20662;-53
2021/03/14 06:57:11;;;;;;;2.30;1.37;;;7.30;91.60;;;;;;5094621;28;20656;-53
2021/03/14 06:59:41;;;;;;;3.13;1.37;;;7.40;91.50;;;;;;5087591;28;20793;-51
2021/03/14 07:02:09;;;;;;;1.77;1.67;;;7.50;91.60;;;;;;5091339;28;20614;-53
2021/03/14 07:04:43;;;;;;;3.43;1.87;;;7.60;91.80;;;;;;5074837;28;20662;-53
2021/03/14 07:07:13;;;;;;;3.77;2.00;;;7.80;91.10;;;;;;5087034;28;20659;-52
2021/03/14 07:09:42;;;;;;;1.60;1.43;;;8.10;91.00;;;;;;5092983;28;20699;-53
2021/03/14 07:12:16;;;;;;;2.40;1.43;;;8.30;90.50;;;;;;5093811;28;20624;-53
2021/03/14 07:14:45;;;;;;;3.87;1.87;;;8.30;89.70;;;;;;5076272;28;21210;-53
2021/03/14 07:17:12;;;;;;;4.30;2.03;;;8.30;89.70;;;;;;5075260;28;21025;-53
2021/03/14 07:19:39;;;;;;;3.90;1.93;;;8.40;89.80;;;;;;5073409;28;20711;-53
2021/03/14 07:22:07;;;;;;;3.37;1.90;;;8.30;89.40;;;;;;5073604;28;20625;-52
2021/03/14 07:24:35;;;;;;;4.83;1.90;;;8.20;88.00;;;;;;5074603;28;20624;-52
2021/03/14 07:27:02;;;;;;;2.80;1.50;;;8.10;88.40;;;;;;5093799;28;20717;-53
2021/03/14 07:29:29;;;;;;;5.60;1.53;;;8.20;88.10;;;;;;5091888;28;21142;-52
2021/03/14 07:31:56;;;;;;;4.20;2.63;;;8.20;87.90;;;;;;5093838;28;20628;-52
2021/03/14 07:34:24;;;;;;;4.93;1.37;;;8.20;87.90;;;;;;5092289;28;20658;-52
2021/03/14 07:36:51;;;;;;;3.20;2.13;;;8.20;88.10;;;;;;5093176;28;20701;-52
2021/03/14 07:39:18;;;;;;;4.50;2.00;;;8.20;87.50;;;;;;5092903;28;20631;-52
2021/03/14 07:41:45;;;;;;;5.17;2.37;;;8.30;87.50;;;;;;5092586;28;21379;-51
2021/03/14 07:44:12;;;;;;;4.47;1.80;;;8.40;87.70;;;;;;5092978;28;20631;-52
2021/03/14 07:46:40;;;;;;;2.30;1.70;;;8.50;87.90;;;;;;5093571;28;20623;-52
2021/03/14 07:49:10;;;;;;;3.97;1.50;;;8.70;87.10;;;;;;5091960;28;20677;-51
2021/03/14 07:51:37;;;;;;;1.80;1.70;;;8.80;86.50;;;;;;5091898;28;20648;-52
2021/03/14 07:54:04;;;;;;;1.93;1.50;;;8.80;86.00;;;;;;5082265;28;20660;-52
2021/03/14 07:56:34;;;;;;;2.67;1.80;;;8.80;85.60;;;;;;5093456;28;20628;-52
2021/03/14 07:59:01;;;;;;;1.73;0.93;;;8.70;84.80;;;;;;5094533;28;20627;-52
2021/03/14 08:01:28;;;;;;;5.53;1.90;;;8.60;84.00;;;;;;5093658;28;20657;-53
2021/03/14 08:03:56;;;;;;;2.20;1.33;;;8.60;84.40;;;;;;5092818;28;20636;-53
2021/03/14 08:06:51;;;;;;;5.50;2.23;;;8.60;83.50;;;;;;5090802;28;21265;-52
2021/03/14 08:09:38;;;;;;;2.63;1.73;;;8.60;82.80;;;;;;5073531;28;20687;-53
2021/03/14 08:12:22;;;;;;;2.30;1.13;;;8.60;83.10;;;;;;5078056;28;20634;-52
2021/03/14 08:14:50;;;;;;;2.57;1.27;;;8.40;82.90;;;;;;5088173;28;20651;-52
2021/03/14 08:17:21;;;;;;;2.80;2.47;;;8.50;83.30;;;;;;5072643;28;20628;-52
2021/03/14 08:19:48;;;;;;;4.87;2.13;;;8.40;83.30;;;;;;5083837;28;21055;-52
2021/03/14 08:22:46;;;;;;;5.50;2.00;;;8.50;84.40;;;;;;5072494;28;20609;-52
2021/03/14 08:25:29;;;;;;;3.93;1.90;;;8.60;84.10;;;;;;5083811;28;20970;-51
2021/03/14 08:28:13;;;;;;;2.50;1.60;;;8.60;84.00;;;;;;5092080;28;21167;-51
2021/03/14 08:30:47;;;;;;;4.33;1.30;;;8.60;83.90;;;;;;5079303;28;21082;-52
2021/03/14 08:33:29;;;;;;;5.03;1.90;;;8.60;83.20;;;;;;5091504;28;20676;-51
2021/03/14 08:35:57;;;;;;;3.60;1.83;;;8.60;82.60;;;;;;5085023;28;20625;-52
2021/03/14 08:38:26;;;;;;;9.67;2.07;;;8.50;81.40;;;;;;5071559;28;20625;-51
2021/03/14 08:41:40;;;;;;;8.70;2.17;;;8.40;80.90;;;;;;5085234;28;21095;-52
2021/03/14 08:44:11;;;;;;;2.67;2.27;;;8.30;82.00;;;;;;5092411;28;20641;-52
2021/03/14 08:47:11;;;;;;;1.73;1.60;;;8.30;81.80;;;;;;5087164;28;20628;-51
2021/03/14 08:49:41;;;;;;;2.07;1.43;;;8.20;82.10;;;;;;5085024;28;20696;-51
2021/03/14 08:52:08;;;;;;;4.07;2.93;;;8.20;83.10;;;;;;5091917;28;20685;-52
2021/03/14 08:54:37;;;;;;;2.00;1.57;;;8.10;83.40;;;;;;5089517;28;20712;-52
2021/03/14 08:57:04;;;;;;;2.90;2.07;;;8.00;83.30;;;;;;5082215;28;20677;-51
2021/03/14 08:59:31;;;;;;;3.77;2.30;;;7.90;83.40;;;;;;5082424;28;20629;-51
2021/03/14 09:01:59;;;;;;;2.70;2.30;;;7.90;83.50;;;;;;5087279;28;20689;-52
2021/03/14 09:04:27;;;;;;;2.60;1.70;;;8.00;83.70;;;;;;5090710;28;20619;-52
2021/03/14 09:07:01;;;;;;;6.80;2.90;;;8.10;84.20;;;;;;5085205;28;21000;-52
2021/03/14 09:09:27;;;;;;;3.77;2.60;;;8.20;83.70;;;;;;5085153;28;20632;-51
2021/03/14 09:11:55;;;;;;;4.00;2.20;;;8.20;83.40;;;;;;5091461;28;21248;-52
2021/03/14 09:14:33;;;;;;;6.20;2.20;;;8.40;83.30;;;;;;5091508;28;20657;-52
2021/03/14 09:17:02;;;;;;;3.87;2.10;;;8.50;83.00;;;;;;5091548;28;21182;-52
2021/03/14 09:19:31;;;;;;;7.47;2.53;;;8.60;82.30;;;;;;5091622;28;20612;-52
2021/03/14 09:21:59;;;;;;;9.77;3.10;;;8.70;82.90;;;;;;5089941;28;20689;-53
2021/03/14 09:24:30;;;;;;;2.80;2.33;;;8.80;82.70;;;;;;5091170;28;20678;-51
2021/03/14 09:27:02;;;;;;;4.67;2.20;;;8.80;81.60;;;;;;5091888;28;20629;-52
2021/03/14 09:29:34;;;;;;;5.73;2.73;;;8.90;81.60;;;;;;5091085;28;21184;-52
2021/03/14 09:32:01;;;;;;;3.67;2.63;;;8.90;81.40;;;;;;5091266;28;20677;-52
2021/03/14 09:34:28;;;;;;;4.20;2.87;;;8.90;81.20;;;;;;5090964;28;20709;-52
2021/03/14 09:36:54;;;;;;;3.50;3.20;;;8.80;81.20;;;;;;5090966;28;20992;-52
2021/03/14 09:39:22;;;;;;;6.07;2.90;;;8.80;80.60;;;;;;5090799;28;20688;-52
2021/03/14 09:41:49;;;;;;;6.70;3.50;;;8.90;81.00;;;;;;5071280;28;20735;-53
2021/03/14 09:44:17;;;;;;;6.50;3.67;;;9.00;79.30;;;;;;5071091;28;20617;-52
2021/03/14 09:46:54;;;;;;;4.07;2.50;;;9.20;79.80;;;;;;5071250;28;20621;-52
2021/03/14 09:49:21;;;;;;;3.23;2.93;;;9.40;78.10;;;;;;5073439;28;20628;-52
2021/03/14 09:51:54;;;;;;;5.37;3.07;;;9.40;77.60;;;;;;5089793;28;20651;-52
2021/03/14 09:54:21;;;;;;;4.63;3.80;;;9.40;77.50;;;;;;5090994;28;20714;-53
2021/03/14 09:56:52;;;;;;;6.13;3.97;;;9.40;76.70;;;;;;5090774;28;20673;-52
2021/03/14 09:59:24;;;;;;;4.40;3.03;;;9.30;76.70;;;;;;5089841;28;20673;-52
2021/03/14 10:01:52;;;;;;;6.43;2.60;;;9.20;76.90;;;;;;5090390;28;20612;-52
2021/03/14 10:04:19;;;;;;;12.83;4.90;;;9.00;76.90;;;;;;5086405;28;20648;-52
2021/03/14 10:06:46;;;;;;;7.17;2.80;;;9.00;77.70;;;;;;5095188;28;21029;-52
2021/03/14 10:09:22;;;;;;;6.03;3.00;;;9.00;78.40;;;;;;5082092;28;20619;-51
2021/03/14 10:11:50;;;;;;;6.27;2.50;;;8.90;77.90;;;;;;5076025;28;20724;-51
2021/03/14 10:14:18;;;;;;;4.53;3.23;;;8.80;78.50;;;;;;5085428;28;20709;-51
2021/03/14 10:16:46;;;;;;;3.60;2.70;;;8.80;78.90;;;;;;5090424;28;20628;-52
2021/03/14 10:19:13;;;;;;;6.10;3.03;;;9.00;79.00;;;;;;5094818;28;21040;-52
2021/03/14 10:21:43;;;;;;;5.63;3.97;;;8.90;78.60;;;;;;5093932;28;21184;-52
2021/03/14 10:24:20;;;;;;;4.73;2.90;;;9.00;78.70;;;;;;5087145;28;21139;-51
2021/03/14 10:26:54;;;;;;;7.73;3.50;;;9.10;78.50;;;;;;5079589;28;20632;-52
2021/03/14 10:29:21;;;;;;;8.73;3.27;;;9.20;78.60;;;;;;5078389;28;21161;-52
2021/03/14 10:31:49;;;;;;;9.13;3.30;;;9.40;77.80;;;;;;5074521;28;21161;-51
2021/03/14 10:34:20;;;;;;;4.27;2.70;;;9.40;76.60;;;;;;5074048;28;20738;-51
2021/03/14 10:36:46;;;;;;;3.77;2.43;;;9.40;75.40;;;;;;5074397;28;20621;-51
2021/03/14 10:39:13;;;;;;;1.60;1.50;;;9.30;75.30;;;;;;5074285;28;20670;-51
2021/03/14 10:41:42;;;;;;;2.60;2.00;;;9.30;75.80;;;;;;5090791;28;20677;-51
2021/03/14 10:44:09;;;;;;;12.20;3.87;;;9.20;75.70;;;;;;5093815;28;20621;-51
2021/03/14 10:46:39;;;;;;;3.07;2.20;;;9.20;75.60;;;;;;5084173;28;20637;-51
2021/03/14 10:49:08;;;;;;;10.33;3.10;;;9.30;75.90;;;;;;5090158;28;20628;-51
2021/03/14 10:51:36;;;;;;;3.77;2.00;;;9.20;75.40;;;;;;5092656;28;20647;-51
2021/03/14 10:54:06;;;;;;;11.17;3.47;;;9.20;75.30;;;;;;5085737;28;20710;-51
2021/03/14 10:56:38;;;;;;;5.97;2.60;;;9.20;76.80;;;;;;5081081;28;21152;-51
2021/03/14 10:59:05;;;;;;;3.07;2.70;;;9.30;75.90;;;;;;5093566;28;20620;-52
2021/03/14 11:01:37;;;;;;;4.63;2.93;;;9.40;75.00;;;;;;5082054;28;20648;-51
2021/03/14 11:04:05;;;;;;;5.40;2.50;;;9.40;75.50;;;;;;5081126;28;21238;-51
2021/03/14 11:06:33;;;;;;;3.00;2.70;;;9.30;75.40;;;;;;5093925;28;21253;-51
2021/03/14 11:09:03;;;;;;;7.73;2.50;;;9.40;76.10;;;;;;5094089;28;20629;-52
2021/03/14 11:11:40;;;;;;;3.73;2.10;;;9.40;76.20;;;;;;5091286;28;21248;-51
2021/03/14 11:14:29;;;;;;;3.70;2.97;;;9.40;76.30;;;;;;5079792;28;20659;-52
2021/03/14 11:17:12;;;;;;;5.63;2.83;;;9.50;76.50;;;;;;5071931;28;20629;-52
2021/03/14 11:19:40;;;;;;;4.10;3.20;;;9.60;75.40;;;;;;5074193;28;20702;-51
2021/03/14 11:22:08;;;;;;;4.23;2.80;;;9.80;75.30;;;;;;5073865;28;20662;-51
2021/03/14 11:24:34;;;;;;;7.37;3.30;;;9.80;75.10;;;;;;5073637;28;20629;-51
2021/03/14 11:27:01;;;;;;;4.20;3.20;;;9.90;75.00;;;;;;5072974;28;20620;-52
2021/03/14 11:29:28;;;;;;;4.17;2.90;;;10.00;73.10;;;;;;5072702;28;20682;-51
2021/03/14 11:31:55;;;;;;;3.30;2.67;;;10.10;72.70;;;;;;5073355;28;21181;-51
2021/03/14 11:34:22;;;;;;;6.80;2.87;;;10.20;71.70;;;;;;5073196;28;21003;-51
2021/03/14 11:36:49;;;;;;;6.23;3.10;;;10.20;71.10;;;;;;5079002;28;20623;-51
2021/03/14 11:39:16;;;;;;;6.67;2.73;;;10.20;72.20;;;;;;5092896;28;20665;-51
2021/03/14 11:41:43;;;;;;;3.27;2.57;;;10.20;71.00;;;;;;5092938;28;20672;-52
2021/03/14 11:44:10;;;;;;;1.93;1.63;;;10.10;71.60;;;;;;5093321;28;20670;-51
2021/03/14 11:46:37;;;;;;;21.97;3.90;;;9.80;71.30;;;;;;5092443;28;20669;-51
2021/03/14 11:49:04;;;;;;;5.03;2.70;;;9.60;72.80;;;;;;5092698;28;20623;-51
2021/03/14 11:51:30;;;;;;;7.13;2.10;;;9.60;73.60;;;;;;5092888;28;20713;-52
2021/03/14 11:53:59;;;;;;;3.37;2.10;;;9.50;73.30;;;;;;5092798;28;21181;-51
2021/03/14 11:56:27;;;;;;;4.90;2.40;;;9.30;72.20;;;;;;5092809;28;20620;-52
2021/03/14 11:58:53;;;;;;;1.70;1.60;;;9.30;74.10;;;;;;5092454;28;20685;-51
2021/03/14 12:01:20;;;;;;;3.40;2.33;;;9.30;73.90;;;;;;5093079;28;20705;-51
2021/03/14 12:03:48;;;;;;;3.93;2.30;;;9.20;74.50;;;;;;5092596;28;21010;-52
2021/03/14 12:06:14;;;;;;;3.70;3.40;;;9.10;76.60;;;;;;5092559;28;20631;-51
2021/03/14 12:08:41;;;;;;;4.73;2.90;;;9.00;77.70;;;;;;5091968;28;20612;-53
2021/03/14 12:11:08;;;;;;;2.40;2.20;;;8.80;79.60;;;;;;5091409;28;20640;-51
2021/03/14 12:13:36;;;;;;;2.93;2.50;;;8.80;80.70;;;;;;5092346;28;20623;-53
2021/03/14 12:16:03;;;;;;;3.57;3.00;;;8.80;81.20;;;;;;5090154;28;20693;-53
2021/03/14 12:18:30;;;;;;;5.83;2.63;;;8.90;81.80;;;;;;5090199;28;21043;-53
2021/03/14 12:20:57;;;;;;;3.00;1.87;;;9.10;82.00;;;;;;5091568;28;20653;-52
2021/03/14 12:23:24;;;;;;;2.63;1.97;;;9.20;80.70;;;;;;5092756;28;21022;-53
2021/03/14 12:25:52;;;;;;;2.83;2.00;;;9.30;81.50;;;;;;5090724;28;20697;-52
2021/03/14 12:28:19;;;;;;;2.73;1.80;;;9.40;81.70;;;;;;5090485;28;20690;-52
2021/03/14 12:30:48;;;;;;;2.70;2.37;;;9.50;79.60;;;;;;5092016;28;21095;-52
2021/03/14 12:33:14;;;;;;;2.20;1.60;;;9.60;79.00;;;;;;5092368;28;20693;-53
2021/03/14 12:35:41;;;;;;;6.70;1.97;;;9.90;77.60;;;;;;5091298;28;20649;-53
2021/03/14 12:38:08;;;;;;;2.20;1.97;;;10.20;76.00;;;;;;5090637;28;20677;-53
2021/03/14 12:40:35;;;;;;;2.03;1.77;;;10.60;73.30;;;;;;5086753;28;20651;-53
2021/03/14 12:43:02;;;;;;;2.30;2.20;;;11.00;72.10;;;;;;5090122;28;20625;-53
2021/03/14 12:45:28;;;;;;;2.27;1.30;;;11.20;70.80;;;;;;5090890;28;21013;-52
2021/03/14 12:47:56;;;;;;;1.97;1.77;;;11.30;70.90;;;;;;5079159;28;20612;-52
2021/03/14 12:50:23;;;;;;;2.30;1.27;;;11.50;70.90;;;;;;5092362;28;20646;-52
2021/03/14 12:52:50;;;;;;;1.10;1.00;;;11.40;69.30;;;;;;5088078;28;20663;-53
2021/03/14 12:55:16;;;;;;;1.60;1.50;;;11.20;70.30;;;;;;5085490;28;20656;-53
2021/03/14 12:57:43;;;;;;;1.90;1.60;;;11.10;70.70;;;;;;5088892;28;20620;-51
2021/03/14 13:00:11;;;;;;;1.10;1.00;;;11.00;71.10;;;;;;5090597;28;20656;-52
2021/03/14 13:02:39;;;;;;;1.10;1.00;;;10.90;70.90;;;;;;5089015;28;20670;-53